Summit, SD (57266)

8:57 PM CDT on September 18, 2014 (GMT -0500)
Rural Summit | Change Station
CLOSE
Current Station
Personal Weather Station
Location: Summit, SD
Elevation: 1913 ft
Nearby Weather Stations

Elev 1913 ft 45.22 °N, 97.08 °W | Updated 2 minutes ago

Clear
Clear
63.3 °F
Feels Like 63.3 °F
N
10.9
Wind Variable Wind from SSE

Today
High -- | Low -- °F
--% Chance of Precip.
Yesterday
High -- | Low -- °F
Precip. -- in
7:10 AM 7:33 PM
Waning Crescent, 23% visible
Pressure 29.87 in
Visibility 10.0 miles
Clouds Clear
Dew Point 56 °F
Humidity 77%
Rainfall 0.00 in
Snow Depth Not available.
UV 0 out of 12
Pollen 3.30 out of 12
Air Quality Not available.
Flu Activity Not available.
METAR KVVV 190133Z AUTO 15007KT 10SM CLR 19/12 A2987 RMK AO2

More Conditions Fewer Conditions

Pressure 29.87 in
Visibility 10.0 miles
Clouds Clear
Dew Point 56 °F
Humidity 77%
Rainfall 0.00 in
Snow Depth Not available.
UV 0 out of 12
Pollen 3.30 out of 12
Air Quality Not available.
Flu Activity Not available.
METAR KVVV 190133Z AUTO 15007KT 10SM CLR 19/12 A2987 RMK AO2

More Conditions Fewer Conditions

10-Day Weather Forecast

Almanac

Astronomy

Sep. 18, 2014 Rise Set
Actual Time 7:10 AM CDT 7:33 PM CDT
Civil Twilight 6:40 AM CDT 8:02 PM CDT
Nautical Twilight 6:05 AM CDT 8:37 PM CDT
Astronomical Twilight 5:29 AM CDT 9:13 PM CDT
Moon 1:52 AM CDT (9/18) 4:35 PM CDT (9/18)
Length of Visible Light 13h 22m
Length of Day
12h 23m
Tomorrow will be 3m 9s shorter.
Waning Crescent, 23% of the Moon is Illuminated
Today
Waning Crescent
Sep 24
New
Oct 1
First Quarter
Oct 8
Full
Oct 15
Last Quarter

Today's Extremes

State Highs State Lows

Community

WunderPhotos

Upload Photos

1,754,529 photos uploaded!

Nearby

Snow Depth

Station Depth Elevation
Blind Park 0 in 6890 ft

Earthquake Activity

City Distance Mag. Time & Date
No recent earthquake activity has been reported nearby.
Minimum magnitude displayed is 2.5.

Coastal Water Temperatures

Place Temperature
No Stations Reporting

Nearby Weather Stations